Time,TemperatureF,DewpointF,PressureIn,WindDirection,WindDirectionDegrees,WindSpeedMPH,WindSpeedGustMPH,Humidity,HourlyPrecipIn,Conditions,Clouds,dailyrainin,SoftwareType,DateUTC
2013-03-28 00:13:00,27.7,24.0,30.36,South,183,0.0,1.0,84,0.00,,,0.00,weatherlink.com 1.10,2013-03-28 05:13:00,
2013-03-28 00:28:00,27.7,24.0,30.36,South,184,0.0,0.0,85,0.00,,,0.00,weatherlink.com 1.10,2013-03-28 05:28:00,
2013-03-28 00:43:00,27.2,23.0,30.36,South,183,0.0,0.0,85,0.00,,,0.00,weatherlink.com 1.10,2013-03-28 05:43:00,
2013-03-28 00:58:00,27.8,24.0,30.36,South,183,0.0,0.0,85,0.00,,,0.00,weatherlink.com 1.10,2013-03-28 05:58:00,
2013-03-28 01:13:00,27.8,24.0,30.36,South,183,0.0,0.0,84,0.00,,,0.00,weatherlink.com 1.10,2013-03-28 06:13:00,
2013-03-28 01:28:00,28.0,23.0,30.37,South,184,0.0,0.0,82,0.00,,,0.00,weatherlink.com 1.10,2013-03-28 06:28:00,
2013-03-28 01:43:00,28.1,23.0,30.37,South,183,0.0,0.0,81,0.00,,,0.00,weatherlink.com 1.10,2013-03-28 06:43:00,
2013-03-28 01:58:00,27.6,23.0,30.37,South,183,0.0,0.0,82,0.00,,,0.00,weatherlink.com 1.10,2013-03-28 06:58:00,
2013-03-28 02:13:00,27.7,23.0,30.36,South,183,0.0,0.0,83,0.00,,,0.00,weatherlink.com 1.10,2013-03-28 07:13:00,
2013-03-28 02:28:00,26.6,22.0,30.37,South,183,0.0,0.0,82,0.00,,,0.00,weatherlink.com 1.10,2013-03-28 07:28:00,
2013-03-28 02:43:00,25.7,22.0,30.36,South,183,0.0,0.0,84,0.00,,,0.00,weatherlink.com 1.10,2013-03-28 07:43:00,
2013-03-28 02:58:00,26.7,23.0,30.36,South,183,0.0,0.0,86,0.00,,,0.00,weatherlink.com 1.10,2013-03-28 07:58:00,
2013-03-28 03:13:00,27.8,23.0,30.36,South,183,0.0,0.0,82,0.00,,,0.00,weatherlink.com 1.10,2013-03-28 08:13:00,
2013-03-28 03:28:00,26.3,22.0,30.37,South,183,0.0,0.0,82,0.00,,,0.00,weatherlink.com 1.10,2013-03-28 08:28:00,
2013-03-28 03:43:00,25.4,22.0,30.37,South,183,0.0,0.0,87,0.00,,,0.00,weatherlink.com 1.10,2013-03-28 08:43:00,
2013-03-28 03:58:00,26.5,23.0,30.36,South,183,0.0,0.0,86,0.00,,,0.00,weatherlink.com 1.10,2013-03-28 08:58:00,
2013-03-28 04:13:00,26.3,23.0,30.36,South,183,0.0,0.0,86,0.00,,,0.00,weatherlink.com 1.10,2013-03-28 09:13:00,
2013-03-28 04:28:00,26.0,22.0,30.36,South,183,0.0,0.0,85,0.00,,,0.00,weatherlink.com 1.10,2013-03-28 09:28:00,
2013-03-28 04:43:00,25.2,21.0,30.36,South,183,0.0,0.0,85,0.00,,,0.00,weatherlink.com 1.10,2013-03-28 09:43:00,
2013-03-28 04:58:00,24.2,21.0,30.37,South,183,0.0,0.0,86,0.00,,,0.00,weatherlink.com 1.10,2013-03-28 09:58:00,
2013-03-28 05:13:00,24.1,21.0,30.36,South,183,0.0,0.0,88,0.00,,,0.00,weatherlink.com 1.10,2013-03-28 10:13:00,
2013-03-28 05:28:00,24.5,21.0,30.37,South,183,0.0,0.0,87,0.00,,,0.00,weatherlink.com 1.10,2013-03-28 10:28:00,
2013-03-28 05:43:00,25.3,23.0,30.37,South,183,0.0,0.0,89,0.00,,,0.00,weatherlink.com 1.10,2013-03-28 10:43:00,
2013-03-28 05:58:00,25.3,22.0,30.37,South,183,0.0,0.0,86,0.00,,,0.00,weatherlink.com 1.10,2013-03-28 10:58:00,
2013-03-28 06:13:00,24.8,22.0,30.38,SSW,193,0.0,5.0,88,0.00,,,0.00,weatherlink.com 1.10,2013-03-28 11:13:00,
2013-03-28 06:28:00,25.1,22.0,30.38,South,176,0.0,1.0,87,0.00,,,0.00,weatherlink.com 1.10,2013-03-28 11:28:00,
2013-03-28 06:43:00,24.3,21.0,30.38,South,176,0.0,0.0,87,0.00,,,0.00,weatherlink.com 1.10,2013-03-28 11:43:00,
2013-03-28 06:58:00,24.6,22.0,30.38,South,176,0.0,0.0,88,0.00,,,0.00,weatherlink.com 1.10,2013-03-28 11:58:00,
2013-03-28 07:13:00,24.5,22.0,30.38,South,176,0.0,0.0,88,0.00,,,0.00,weatherlink.com 1.10,2013-03-28 12:13:00,
2013-03-28 07:28:00,24.2,22.0,30.39,South,176,0.0,0.0,89,0.00,,,0.00,weatherlink.com 1.10,2013-03-28 12:28:00,
2013-03-28 07:43:00,24.0,21.0,30.39,South,176,0.0,0.0,89,0.00,,,0.00,weatherlink.com 1.10,2013-03-28 12:43:00,
2013-03-28 07:58:00,24.7,22.0,30.40,South,176,0.0,0.0,90,0.00,,,0.00,weatherlink.com 1.10,2013-03-28 12:58:00,
2013-03-28 08:13:00,29.4,27.0,30.39,South,176,0.0,0.0,90,0.00,,,0.00,weatherlink.com 1.10,2013-03-28 13:13:00,
2013-03-28 08:29:00,31.5,28.0,30.40,SSW,211,0.0,0.0,85,0.00,,,0.00,weatherlink.com 1.10,2013-03-28 13:29:00,
2013-03-28 08:44:00,33.5,27.0,30.40,WSW,257,2.0,2.0,76,0.00,,,0.00,weatherlink.com 1.10,2013-03-28 13:44:00,
2013-03-28 08:59:00,34.9,27.0,30.40,WSW,255,0.0,2.0,73,0.00,,,0.00,weatherlink.com 1.10,2013-03-28 13:59:00,
2013-03-28 09:14:00,36.7,28.0,30.40,WSW,254,0.0,2.0,70,0.00,,,0.00,weatherlink.com 1.10,2013-03-28 14:14:00,
2013-03-28 09:29:00,37.9,27.0,30.40,West,262,1.0,2.0,66,0.00,,,0.00,weatherlink.com 1.10,2013-03-28 14:29:00,
2013-03-28 09:44:00,39.0,28.0,30.40,West,269,1.0,2.0,66,0.00,,,0.00,weatherlink.com 1.10,2013-03-28 14:44:00,
2013-03-28 09:59:00,41.1,28.0,30.40,SE,136,0.0,2.0,60,0.00,,,0.00,weatherlink.com 1.10,2013-03-28 14:59:00,
2013-03-28 10:14:00,41.7,29.0,30.40,SE,125,1.0,3.0,60,0.00,,,0.00,weatherlink.com 1.10,2013-03-28 15:14:00,
2013-03-28 10:29:00,43.0,29.0,30.40,SE,146,5.0,5.0,57,0.00,,,0.00,weatherlink.com 1.10,2013-03-28 15:29:00,
2013-03-28 10:44:00,43.5,29.0,30.40,ESE,111,3.0,6.0,58,0.00,,,0.00,weatherlink.com 1.10,2013-03-28 15:44:00,
2013-03-28 10:59:00,43.9,29.0,30.40,ESE,116,0.0,6.0,56,0.00,,,0.00,weatherlink.com 1.10,2013-03-28 15:59:00,
2013-03-28 11:14:00,44.7,30.0,30.39,SSE,148,4.0,7.0,56,0.00,,,0.00,weatherlink.com 1.10,2013-03-28 16:14:00,
2013-03-28 11:29:00,44.9,29.0,30.39,SE,131,3.0,6.0,55,0.00,,,0.00,weatherlink.com 1.10,2013-03-28 16:29:00,
2013-03-28 11:44:00,45.3,30.0,30.39,SE,146,3.0,7.0,55,0.00,,,0.00,weatherlink.com 1.10,2013-03-28 16:44:00,
2013-03-28 11:59:00,45.7,30.0,30.39,NE,39,1.0,9.0,55,0.00,,,0.00,weatherlink.com 1.10,2013-03-28 16:59:00,
2013-03-28 12:14:00,46.4,29.0,30.38,SSE,153,4.0,6.0,52,0.00,,,0.00,weatherlink.com 1.10,2013-03-28 17:14:00,
2013-03-28 12:29:00,47.0,30.0,30.38,SSE,159,4.0,8.0,51,0.00,,,0.00,weatherlink.com 1.10,2013-03-28 17:29:00,
2013-03-28 12:44:00,47.6,31.0,30.37,ESE,118,2.0,8.0,52,0.00,,,0.00,weatherlink.com 1.10,2013-03-28 17:44:00,
2013-03-28 12:59:00,48.3,31.0,30.36,East,96,5.0,8.0,51,0.00,,,0.00,weatherlink.com 1.10,2013-03-28 17:59:00,
2013-03-28 13:14:00,49.2,32.0,30.36,NNE,33,2.0,7.0,52,0.00,,,0.00,weatherlink.com 1.10,2013-03-28 18:14:00,
2013-03-28 13:30:00,49.1,30.0,30.36,SE,136,4.0,7.0,49,0.00,,,0.00,weatherlink.com 1.10,2013-03-28 18:30:00,
2013-03-28 13:45:00,50.1,31.0,30.35,ESE,114,3.0,8.0,49,0.00,,,0.00,weatherlink.com 1.10,2013-03-28 18:45:00,
2013-03-28 14:00:00,49.7,31.0,30.34,SSE,163,3.0,7.0,48,0.00,,,0.00,weatherlink.com 1.10,2013-03-28 19:00:00,
2013-03-28 14:15:00,49.9,30.0,30.34,SSE,151,1.0,6.0,47,0.00,,,0.00,weatherlink.com 1.10,2013-03-28 19:15:00,
2013-03-28 14:30:00,51.2,30.0,30.33,ESE,121,6.0,8.0,45,0.00,,,0.00,weatherlink.com 1.10,2013-03-28 19:30:00,
2013-03-28 14:45:00,51.2,31.0,30.33,SE,134,1.0,6.0,46,0.00,,,0.00,weatherlink.com 1.10,2013-03-28 19:45:00,
2013-03-28 15:00:00,50.6,30.0,30.32,SE,124,1.0,8.0,46,0.00,,,0.00,weatherlink.com 1.10,2013-03-28 20:00:00,
2013-03-28 15:15:00,51.3,30.0,30.32,South,188,3.0,7.0,45,0.00,,,0.00,weatherlink.com 1.10,2013-03-28 20:15:00,
2013-03-28 15:30:00,51.8,30.0,30.31,SSE,149,4.0,7.0,44,0.00,,,0.00,weatherlink.com 1.10,2013-03-28 20:30:00,
2013-03-28 15:45:00,51.9,30.0,30.30,SSW,212,3.0,9.0,44,0.00,,,0.00,weatherlink.com 1.10,2013-03-28 20:45:00,
2013-03-28 16:00:00,52.3,31.0,30.30,SE,146,3.0,6.0,44,0.00,,,0.00,weatherlink.com 1.10,2013-03-28 21:00:00,
2013-03-28 16:15:00,52.3,31.0,30.30,SE,125,2.0,5.0,45,0.00,,,0.00,weatherlink.com 1.10,2013-03-28 21:15:00,
2013-03-28 16:30:00,52.8,32.0,30.29,SSW,205,2.0,8.0,46,0.00,,,0.00,weatherlink.com 1.10,2013-03-28 21:30:00,
2013-03-28 16:45:00,52.3,31.0,30.29,SSE,159,5.0,6.0,45,0.00,,,0.00,weatherlink.com 1.10,2013-03-28 21:45:00,
2013-03-28 17:00:00,52.3,31.0,30.29,SSE,165,2.0,7.0,44,0.00,,,0.00,weatherlink.com 1.10,2013-03-28 22:00:00,
2013-03-28 17:15:00,52.1,31.0,30.29,SE,134,4.0,7.0,45,0.00,,,0.00,weatherlink.com 1.10,2013-03-28 22:15:00,
2013-03-28 17:30:00,52.6,32.0,30.29,ESE,122,6.0,8.0,45,0.00,,,0.00,weatherlink.com 1.10,2013-03-28 22:30:00,
2013-03-28 17:45:00,52.1,32.0,30.29,East,96,2.0,6.0,46,0.00,,,0.00,weatherlink.com 1.10,2013-03-28 22:45:00,
2013-03-28 18:00:00,51.5,31.0,30.29,South,188,2.0,5.0,46,0.00,,,0.00,weatherlink.com 1.10,2013-03-28 23:00:00,
2013-03-28 18:15:00,50.8,32.0,30.29,SE,139,2.0,5.0,48,0.00,,,0.00,weatherlink.com 1.10,2013-03-28 23:15:00,
2013-03-28 18:30:00,49.9,31.0,30.29,ESE,121,4.0,5.0,49,0.00,,,0.00,weatherlink.com 1.10,2013-03-28 23:30:00,
2013-03-28 18:45:00,48.6,31.0,30.29,East,90,2.0,7.0,52,0.00,,,0.00,weatherlink.com 1.10,2013-03-28 23:45:00,
2013-03-28 19:00:00,47.5,31.0,30.30,SSE,148,2.0,5.0,53,0.00,,,0.00,weatherlink.com 1.10,2013-03-29 00:00:00,
2013-03-28 19:15:00,46.6,31.0,30.30,ESE,122,2.0,4.0,55,0.00,,,0.00,weatherlink.com 1.10,2013-03-29 00:15:00,
2013-03-28 19:30:00,45.7,31.0,30.30,ESE,107,2.0,3.0,57,0.00,,,0.00,weatherlink.com 1.10,2013-03-29 00:30:00,
2013-03-28 19:45:00,45.1,31.0,30.30,ESE,122,2.0,3.0,58,0.00,,,0.00,weatherlink.com 1.10,2013-03-29 00:45:00,
2013-03-28 20:00:00,44.5,31.0,30.31,SE,127,0.0,4.0,59,0.00,,,0.00,weatherlink.com 1.10,2013-03-29 01:00:00,
2013-03-28 20:15:00,44.0,31.0,30.31,SE,131,2.0,3.0,60,0.00,,,0.00,weatherlink.com 1.10,2013-03-29 01:15:00,
2013-03-28 20:30:00,43.5,31.0,30.31,SSE,149,2.0,3.0,61,0.00,,,0.00,weatherlink.com 1.10,2013-03-29 01:30:00,
2013-03-28 20:45:00,43.2,31.0,30.31,ESE,117,2.0,3.0,62,0.00,,,0.00,weatherlink.com 1.10,2013-03-29 01:45:00,
2013-03-28 21:00:00,43.2,31.0,30.31,SE,124,1.0,3.0,62,0.00,,,0.00,weatherlink.com 1.10,2013-03-29 02:00:00,
2013-03-28 21:15:00,43.1,31.0,30.32,ESE,117,2.0,4.0,62,0.00,,,0.00,weatherlink.com 1.10,2013-03-29 02:15:00,
2013-03-28 21:30:00,42.9,31.0,30.32,SE,137,3.0,5.0,63,0.00,,,0.00,weatherlink.com 1.10,2013-03-29 02:30:00,
2013-03-28 21:45:00,42.6,31.0,30.32,SSE,165,3.0,5.0,63,0.00,,,0.00,weatherlink.com 1.10,2013-03-29 02:45:00,
2013-03-28 22:00:00,42.1,31.0,30.32,SE,131,2.0,3.0,65,0.00,,,0.00,weatherlink.com 1.10,2013-03-29 03:00:00,
2013-03-28 22:15:00,41.8,31.0,30.32,ESE,122,2.0,4.0,66,0.00,,,0.00,weatherlink.com 1.10,2013-03-29 03:15:00,
2013-03-28 22:30:00,41.5,31.0,30.31,SE,142,2.0,3.0,66,0.00,,,0.00,weatherlink.com 1.10,2013-03-29 03:30:00,
2013-03-28 22:45:00,41.3,31.0,30.31,SSE,167,2.0,4.0,67,0.00,,,0.00,weatherlink.com 1.10,2013-03-29 03:45:00,
2013-03-28 23:00:00,41.2,31.0,30.32,ESE,122,1.0,3.0,67,0.00,,,0.00,weatherlink.com 1.10,2013-03-29 04:00:00,
2013-03-28 23:15:00,41.2,31.0,30.32,SE,126,0.0,2.0,67,0.00,,,0.00,weatherlink.com 1.10,2013-03-29 04:15:00,
2013-03-28 23:30:00,41.0,31.0,30.31,SE,136,0.0,1.0,67,0.00,,,0.00,weatherlink.com 1.10,2013-03-29 04:30:00,
2013-03-28 23:45:00,40.7,31.0,30.31,SE,128,0.0,1.0,69,0.00,,,0.00,weatherlink.com 1.10,2013-03-29 04:45:00,